createdAt,value
2023-03-17T00:01:51.677Z,101312.25
2023-03-17T00:04:19.636Z,101321.66
2023-03-17T00:06:47.541Z,101320.22
2023-03-17T00:09:17.612Z,101314.25
2023-03-17T00:11:46.093Z,101310.16
2023-03-17T00:14:13.508Z,101298.09
2023-03-17T00:16:45.659Z,101297.66
2023-03-17T00:19:33.526Z,101296.22
2023-03-17T00:22:01.421Z,101301.75
2023-03-17T00:24:31.664Z,101293.75
2023-03-17T00:26:58.918Z,101301.53
2023-03-17T00:29:26.769Z,101306.00
2023-03-17T00:31:55.238Z,101304.97
2023-03-17T00:34:23.240Z,101298.22
2023-03-17T00:36:51.681Z,101294.72
2023-03-17T00:39:19.207Z,101276.91
2023-03-17T00:44:12.631Z,101289.19
2023-03-17T00:46:41.424Z,101271.59
2023-03-17T00:49:19.837Z,101272.00
2023-03-17T00:51:47.788Z,101269.53
2023-03-17T00:54:16.508Z,101261.75
2023-03-17T00:56:44.691Z,101246.16
2023-03-17T00:59:24.166Z,101237.56
2023-03-17T01:01:51.916Z,101226.13
2023-03-17T01:04:20.462Z,101239.63
2023-03-17T01:06:49.889Z,101222.03
2023-03-17T01:09:20.441Z,101230.19
2023-03-17T01:11:48.592Z,101232.84
2023-03-17T01:14:15.625Z,101220.97
2023-03-17T01:16:43.080Z,101233.88
2023-03-17T01:19:12.997Z,101231.84
2023-03-17T01:21:42.432Z,101230.19
2023-03-17T01:24:09.601Z,101225.69
2023-03-17T01:26:36.945Z,101221.00
2023-03-17T01:29:04.736Z,101229.19
2023-03-17T01:31:31.892Z,101224.06
2023-03-17T01:33:58.797Z,101211.78
2023-03-17T01:36:26.501Z,101222.03
2023-03-17T01:38:53.652Z,101209.75
2023-03-17T01:41:23.651Z,101206.91
2023-03-17T01:43:51.215Z,101201.97
2023-03-17T01:46:32.061Z,101209.75
2023-03-17T01:49:07.192Z,101199.31
2023-03-17T01:51:49.307Z,101204.63
2023-03-17T01:54:24.800Z,101202.78
2023-03-17T01:56:53.959Z,101205.44
2023-03-17T01:59:28.810Z,101195.03
2023-03-17T02:02:02.837Z,101193.19
2023-03-17T02:04:31.304Z,101178.88
2023-03-17T02:06:59.179Z,101171.91
2023-03-17T02:09:28.136Z,101178.25
2023-03-17T02:11:56.750Z,101173.75
2023-03-17T02:14:24.348Z,101167.19
2023-03-17T02:16:51.463Z,101179.69
2023-03-17T02:19:18.550Z,101171.28
2023-03-17T02:21:53.312Z,101171.50
2023-03-17T02:25:05.327Z,101163.72
2023-03-17T02:27:42.629Z,101158.00
2023-03-17T02:30:13.775Z,101154.50
2023-03-17T02:32:43.311Z,101158.19
2023-03-17T02:35:10.794Z,101147.53
2023-03-17T02:37:38.810Z,101166.16
2023-03-17T02:40:07.698Z,101164.53
2023-03-17T02:42:35.581Z,101159.00
2023-03-17T02:45:02.572Z,101152.06
2023-03-17T02:47:29.527Z,101159.22
2023-03-17T02:49:56.726Z,101156.56
2023-03-17T02:52:24.001Z,101156.56
2023-03-17T02:54:51.094Z,101152.06
2023-03-17T02:57:18.072Z,101153.69
2023-03-17T02:59:45.087Z,101158.59
2023-03-17T03:02:12.015Z,101144.91
2023-03-17T03:04:39.050Z,101144.91
2023-03-17T03:07:06.497Z,101154.50
2023-03-17T03:09:33.523Z,101148.78
2023-03-17T03:12:00.930Z,101139.78
2023-03-17T03:14:32.321Z,101136.94
2023-03-17T03:16:59.550Z,101141.44
2023-03-17T03:19:26.625Z,101148.78
2023-03-17T03:21:53.828Z,101155.34
2023-03-17T03:24:20.636Z,101157.78
2023-03-17T03:26:48.185Z,101156.16
2023-03-17T03:29:15.260Z,101162.72
2023-03-17T03:31:42.414Z,101162.09
2023-03-17T03:34:09.267Z,101162.72
2023-03-17T03:36:36.984Z,101164.34
2023-03-17T03:39:04.007Z,101173.13
2023-03-17T03:41:31.122Z,101158.81
2023-03-17T03:43:58.106Z,101161.28
2023-03-17T03:46:26.563Z,101160.66
2023-03-17T03:48:54.821Z,101151.47
2023-03-17T03:51:21.779Z,101151.47
2023-03-17T03:53:48.748Z,101157.59
2023-03-17T03:56:15.810Z,101154.94
2023-03-17T03:58:42.840Z,101145.34
2023-03-17T04:01:10.113Z,101143.69
2023-03-17T04:03:37.942Z,101158.81
2023-03-17T04:06:05.949Z,101151.66
2023-03-17T04:08:33.115Z,101153.50
2023-03-17T04:11:00.424Z,101159.66
2023-03-17T04:13:27.370Z,101156.16
2023-03-17T04:15:54.571Z,101144.72
2023-03-17T04:18:21.494Z,101143.09
2023-03-17T04:20:48.394Z,101141.03
2023-03-17T04:23:15.333Z,101135.31
2023-03-17T04:25:42.200Z,101135.91
2023-03-17T04:28:09.322Z,101134.69
2023-03-17T04:30:36.522Z,101136.72
2023-03-17T04:33:03.714Z,101126.50
2023-03-17T04:35:31.375Z,101114.63
2023-03-17T04:37:58.334Z,101109.13
2023-03-17T04:40:26.516Z,101115.44
2023-03-17T04:42:53.575Z,101104.81
2023-03-17T04:45:20.849Z,101110.94
2023-03-17T04:47:47.792Z,101127.69
2023-03-17T04:50:15.293Z,101129.53
2023-03-17T04:52:42.453Z,101127.91
2023-03-17T04:55:10.289Z,101128.72
2023-03-17T04:57:37.575Z,101118.88
2023-03-17T05:00:07.174Z,101119.28
2023-03-17T05:02:34.467Z,101123.59
2023-03-17T05:05:02.002Z,101127.06
2023-03-17T05:07:29.000Z,101121.31
2023-03-17T05:09:56.982Z,101118.25
2023-03-17T05:12:24.085Z,101120.09
2023-03-17T05:14:51.147Z,101118.03
2023-03-17T05:17:18.257Z,101115.19
2023-03-17T05:19:45.259Z,101108.44
2023-03-17T05:22:12.388Z,101092.69
2023-03-17T05:24:39.315Z,101098.44
2023-03-17T05:27:06.420Z,101090.47
2023-03-17T05:29:33.609Z,101093.94
2023-03-17T05:32:00.489Z,101092.31
2023-03-17T05:34:27.529Z,101096.59
2023-03-17T05:36:54.512Z,101109.28
2023-03-17T05:39:21.376Z,101108.47
2023-03-17T05:41:48.373Z,101101.31
2023-03-17T05:44:16.407Z,101098.66
2023-03-17T05:46:43.530Z,101113.78
2023-03-17T05:49:10.628Z,101102.97
2023-03-17T05:51:37.714Z,101114.00
2023-03-17T05:54:05.078Z,101115.44
2023-03-17T05:56:33.679Z,101115.88
2023-03-17T05:59:01.665Z,101124.47
2023-03-17T06:01:29.594Z,101125.91
2023-03-17T06:03:57.412Z,101131.00
2023-03-17T06:06:24.533Z,101118.75
2023-03-17T06:08:51.657Z,101115.09
2023-03-17T06:11:20.558Z,101111.81
2023-03-17T06:13:48.528Z,101110.81
2023-03-17T06:16:15.957Z,101105.13
2023-03-17T06:18:43.097Z,101093.47
2023-03-17T06:21:10.422Z,101100.81
2023-03-17T06:23:37.562Z,101097.75
2023-03-17T06:26:05.741Z,101113.09
2023-03-17T06:28:32.864Z,101099.41
2023-03-17T06:30:59.921Z,101122.09
2023-03-17T06:33:27.177Z,101116.19
2023-03-17T06:35:54.330Z,101126.00
2023-03-17T06:38:21.784Z,101110.25
2023-03-17T06:40:48.954Z,101111.47
2023-03-17T06:43:17.343Z,101103.28
2023-03-17T06:45:44.208Z,101104.72
2023-03-17T06:48:12.199Z,101111.28
2023-03-17T06:50:39.651Z,101109.22
2023-03-17T06:53:07.154Z,101093.06
2023-03-17T06:55:34.206Z,101091.84
2023-03-17T06:58:03.174Z,101093.88
2023-03-17T07:00:30.419Z,101094.31
2023-03-17T07:02:57.741Z,101082.84
2023-03-17T07:05:24.842Z,101081.00
2023-03-17T07:07:51.777Z,101075.91
2023-03-17T07:10:18.873Z,101075.28
2023-03-17T07:12:45.904Z,101086.13
2023-03-17T07:15:12.960Z,101080.97
2023-03-17T07:17:39.955Z,101085.06
2023-03-17T07:20:07.714Z,101080.78
2023-03-17T07:22:34.788Z,101068.91
2023-03-17T07:25:01.662Z,101056.81
2023-03-17T07:27:29.205Z,101055.97
2023-03-17T07:29:56.713Z,101049.78
2023-03-17T07:32:24.595Z,101045.06
2023-03-17T07:34:51.483Z,101048.09
2023-03-17T07:37:19.332Z,101030.44
2023-03-17T07:39:47.239Z,101016.88
2023-03-17T07:42:15.613Z,101041.34
2023-03-17T07:44:42.768Z,101045.97
2023-03-17T07:47:11.868Z,101011.19
2023-03-17T07:49:42.083Z,101008.94
2023-03-17T07:52:10.959Z,101034.06
2023-03-17T07:54:38.071Z,101034.78
2023-03-17T07:57:06.307Z,101037.56
2023-03-17T07:59:33.532Z,101033.94
2023-03-17T08:02:01.795Z,101032.69
2023-03-17T08:04:29.453Z,101038.84
2023-03-17T08:06:57.460Z,101044.13
2023-03-17T08:09:24.610Z,101027.28
2023-03-17T08:11:52.063Z,101030.09
2023-03-17T08:14:19.642Z,101033.53
2023-03-17T08:16:47.156Z,101032.75
2023-03-17T08:19:14.329Z,101023.84
2023-03-17T08:21:41.252Z,101020.78
2023-03-17T08:24:08.161Z,101029.25
2023-03-17T08:26:35.119Z,101020.25
2023-03-17T08:29:02.071Z,101025.72
2023-03-17T08:31:28.965Z,101013.13
2023-03-17T08:33:57.153Z,101005.97
2023-03-17T08:36:24.531Z,100999.44
2023-03-17T08:38:51.656Z,101001.19
2023-03-17T08:41:24.020Z,101009.63
2023-03-17T08:43:51.622Z,101019.06
2023-03-17T08:46:28.939Z,101013.69
2023-03-17T08:48:57.308Z,101012.38
2023-03-17T08:51:29.136Z,101004.94
2023-03-17T08:53:56.592Z,101000.78
2023-03-17T08:56:24.087Z,100991.06
2023-03-17T08:58:51.857Z,100984.69
2023-03-17T09:01:20.802Z,100976.13
2023-03-17T09:03:48.421Z,100967.25
2023-03-17T09:06:15.760Z,100964.00
2023-03-17T09:08:47.592Z,100962.69
2023-03-17T09:11:18.308Z,100963.19
2023-03-17T09:13:47.507Z,100961.88
2023-03-17T09:16:16.189Z,100965.06
2023-03-17T09:18:46.048Z,100957.75
2023-03-17T09:21:14.820Z,100956.13
2023-03-17T09:23:42.174Z,100948.44
2023-03-17T09:26:10.128Z,100942.84
2023-03-17T09:28:37.239Z,100954.13
2023-03-17T09:31:11.451Z,100947.41
2023-03-17T09:33:40.923Z,100954.03
2023-03-17T09:36:09.937Z,100947.88
2023-03-17T09:38:37.896Z,100946.41
2023-03-17T09:41:31.095Z,100947.91
2023-03-17T09:44:14.481Z,100950.44
2023-03-17T09:47:21.508Z,100943.28
2023-03-17T09:49:58.566Z,100942.06
2023-03-17T09:52:29.785Z,100950.88
2023-03-17T09:54:57.634Z,100941.38
2023-03-17T09:57:34.716Z,100936.41
2023-03-17T10:00:27.404Z,100937.38
2023-03-17T10:02:55.754Z,100949.97
2023-03-17T10:05:36.292Z,100937.66
2023-03-17T10:08:30.798Z,100928.72
2023-03-17T10:11:15.916Z,100917.97
2023-03-17T10:14:02.437Z,100919.34
2023-03-17T10:16:48.456Z,100906.88
2023-03-17T10:19:36.014Z,100912.63
2023-03-17T10:22:13.704Z,100914.00
2023-03-17T10:24:46.774Z,100909.13
2023-03-17T10:27:15.724Z,100903.91
2023-03-17T10:29:42.727Z,100908.28
2023-03-17T10:32:13.195Z,100906.38
2023-03-17T10:34:42.029Z,100915.25
2023-03-17T10:37:18.832Z,100917.69
2023-03-17T10:39:56.783Z,100914.06
2023-03-17T10:42:29.134Z,100906.50
2023-03-17T10:45:07.434Z,100906.00
2023-03-17T10:47:40.655Z,100906.78
2023-03-17T10:50:25.159Z,100899.72
2023-03-17T10:53:03.008Z,100903.31
2023-03-17T10:55:44.615Z,100896.13
2023-03-17T10:58:16.946Z,100879.09
2023-03-17T11:01:02.698Z,100883.06
2023-03-17T11:03:34.051Z,100882.44
2023-03-17T11:06:12.120Z,100874.31
2023-03-17T11:08:51.100Z,100871.59
2023-03-17T11:12:01.590Z,100860.47
2023-03-17T11:14:28.588Z,100858.09
2023-03-17T11:17:37.141Z,100862.06
2023-03-17T11:20:18.987Z,100863.88
2023-03-17T11:23:13.417Z,100857.91
2023-03-17T11:25:44.485Z,100858.22
2023-03-17T11:28:22.113Z,100852.69
2023-03-17T11:30:58.406Z,100857.59
2023-03-17T11:33:31.277Z,100851.56
2023-03-17T11:36:36.178Z,100848.16
2023-03-17T11:39:43.791Z,100849.69
2023-03-17T11:42:23.154Z,100843.59
2023-03-17T11:45:16.915Z,100846.50
2023-03-17T11:47:49.707Z,100840.16
2023-03-17T11:50:26.560Z,100846.75
2023-03-17T11:53:33.553Z,100843.09
2023-03-17T11:56:10.892Z,100838.78
2023-03-17T11:58:48.398Z,100832.22
2023-03-17T12:01:27.087Z,100825.16
2023-03-17T12:04:30.606Z,100818.44
2023-03-17T12:07:22.322Z,100827.72
2023-03-17T12:10:28.838Z,100818.50
2023-03-17T12:13:02.474Z,100822.16
2023-03-17T12:15:45.545Z,100828.88
2023-03-17T12:18:34.840Z,100831.00
2023-03-17T12:21:37.422Z,100817.59
2023-03-17T12:24:25.963Z,100808.78
2023-03-17T12:27:26.324Z,100813.44
2023-03-17T12:30:01.406Z,100811.00
2023-03-17T12:32:55.092Z,100799.47
2023-03-17T12:35:27.706Z,100799.91
2023-03-17T12:37:58.904Z,100798.22
2023-03-17T12:40:52.068Z,100797.00
2023-03-17T12:43:25.376Z,100803.16
2023-03-17T12:46:11.465Z,100797.31
2023-03-17T12:49:02.839Z,100784.75
2023-03-17T12:52:02.865Z,100780.97
2023-03-17T12:54:36.937Z,100773.97
2023-03-17T12:57:22.329Z,100767.34
2023-03-17T12:59:58.326Z,100767.91
2023-03-17T13:02:38.306Z,100763.50
2023-03-17T13:05:14.626Z,100766.72
2023-03-17T13:08:02.514Z,100769.88
2023-03-17T13:10:43.306Z,100764.88
2023-03-17T13:13:23.295Z,100759.03
2023-03-17T13:15:57.244Z,100753.38
2023-03-17T13:18:34.013Z,100760.22
2023-03-17T13:21:01.075Z,100760.84
2023-03-17T13:24:16.970Z,100765.28
2023-03-17T13:27:01.883Z,100752.56
2023-03-17T13:29:35.372Z,100745.69
2023-03-17T13:32:17.424Z,100752.31
2023-03-17T13:34:48.382Z,100760.94
2023-03-17T13:37:44.333Z,100751.28
2023-03-17T13:40:56.861Z,100763.13
2023-03-17T13:44:03.691Z,100744.56
2023-03-17T13:46:37.544Z,100728.81
2023-03-17T13:49:17.806Z,100721.34
2023-03-17T13:52:14.498Z,100730.00
2023-03-17T13:54:51.230Z,100737.75
2023-03-17T13:58:11.369Z,100742.13
2023-03-17T14:00:43.583Z,100743.97
2023-03-17T14:03:38.009Z,100751.16
2023-03-17T14:06:07.881Z,100745.06
2023-03-17T14:08:37.530Z,100755.16
2023-03-17T14:11:15.860Z,100751.56
2023-03-17T14:14:36.816Z,100747.03
2023-03-17T14:17:24.304Z,100742.91
2023-03-17T14:20:04.444Z,100748.03
2023-03-17T14:22:31.585Z,100731.41
2023-03-17T14:25:01.844Z,100740.13
2023-03-17T14:27:33.803Z,100729.06
2023-03-17T14:30:22.543Z,100727.75
2023-03-17T14:33:16.447Z,100731.25
2023-03-17T14:35:43.833Z,100715.56
2023-03-17T14:38:30.795Z,100708.00
2023-03-17T14:41:07.912Z,100701.66
2023-03-17T14:43:36.937Z,100711.44
2023-03-17T14:46:06.054Z,100709.28
2023-03-17T14:48:37.336Z,100702.44
2023-03-17T14:51:10.579Z,100692.44
2023-03-17T14:53:44.864Z,100692.19
2023-03-17T14:56:13.062Z,100679.25
2023-03-17T14:58:44.473Z,100681.22
2023-03-17T15:01:35.379Z,100682.63
2023-03-17T15:04:12.005Z,100681.47
2023-03-17T15:06:54.369Z,100694.28
2023-03-17T15:09:36.850Z,100688.69
2023-03-17T15:12:18.557Z,100672.31
2023-03-17T15:14:46.702Z,100674.88
2023-03-17T15:17:21.780Z,100686.88
2023-03-17T15:19:54.560Z,100677.25
2023-03-17T15:22:21.346Z,100690.63
2023-03-17T15:25:02.754Z,100666.56
2023-03-17T15:27:31.533Z,100664.84
2023-03-17T15:29:58.877Z,100654.13
2023-03-17T15:32:27.953Z,100649.38
2023-03-17T15:34:58.944Z,100655.69
2023-03-17T15:37:32.188Z,100654.19
2023-03-17T15:40:01.349Z,100650.78
2023-03-17T15:42:32.748Z,100638.44
2023-03-17T15:45:01.388Z,100639.88
2023-03-17T15:47:35.346Z,100635.88
2023-03-17T15:50:17.262Z,100642.66
2023-03-17T15:52:45.885Z,100634.34
2023-03-17T15:55:23.418Z,100633.34
2023-03-17T15:57:54.993Z,100638.31
2023-03-17T16:00:26.537Z,100641.06
2023-03-17T16:02:57.345Z,100648.97
2023-03-17T16:05:28.219Z,100653.31
2023-03-17T16:07:55.635Z,100651.44
2023-03-17T16:10:29.633Z,100648.53
2023-03-17T16:12:56.858Z,100645.03
2023-03-17T16:15:31.241Z,100659.41
2023-03-17T16:18:05.578Z,100661.88
2023-03-17T16:20:47.691Z,100677.00
2023-03-17T16:23:19.995Z,100667.28
2023-03-17T16:25:47.414Z,100668.13
2023-03-17T16:28:20.870Z,100673.00
2023-03-17T16:30:50.225Z,100660.88
2023-03-17T16:33:25.503Z,100660.91
2023-03-17T16:35:53.761Z,100655.53
2023-03-17T16:38:24.508Z,100654.16
2023-03-17T16:40:55.518Z,100657.69
2023-03-17T16:43:31.801Z,100647.97
2023-03-17T16:46:02.651Z,100649.88
2023-03-17T16:48:31.048Z,100654.19
2023-03-17T16:50:58.763Z,100652.84
2023-03-17T16:53:26.423Z,100646.91
2023-03-17T16:55:54.589Z,100647.44
2023-03-17T16:58:31.776Z,100649.88
2023-03-17T17:01:02.962Z,100639.38
2023-03-17T17:03:31.272Z,100640.16
2023-03-17T17:05:58.460Z,100647.44
2023-03-17T17:08:25.636Z,100651.47
2023-03-17T17:10:52.526Z,100650.66
2023-03-17T17:13:19.426Z,100633.63
2023-03-17T17:15:46.852Z,100641.44
2023-03-17T17:18:17.665Z,100642.25
2023-03-17T17:20:46.023Z,100640.03
2023-03-17T17:23:17.029Z,100639.75
2023-03-17T17:25:44.679Z,100644.31
2023-03-17T17:28:14.231Z,100640.00
2023-03-17T17:30:45.113Z,100635.69
2023-03-17T17:33:12.857Z,100646.97
2023-03-17T17:35:40.540Z,100647.50
2023-03-17T17:38:26.565Z,100649.38
2023-03-17T17:40:58.713Z,100657.97
2023-03-17T17:43:26.056Z,100653.91
2023-03-17T17:45:53.563Z,100649.31
2023-03-17T17:48:24.794Z,100656.56
2023-03-17T17:50:54.673Z,100653.56
2023-03-17T17:53:22.167Z,100656.53
2023-03-17T17:55:50.090Z,100660.28
2023-03-17T17:58:23.411Z,100652.72
2023-03-17T18:00:52.526Z,100658.91
2023-03-17T18:03:24.486Z,100647.31
2023-03-17T18:05:53.932Z,100654.31
2023-03-17T18:08:21.399Z,100656.97
2023-03-17T18:10:50.214Z,100652.06
2023-03-17T18:13:19.033Z,100661.47
2023-03-17T18:15:46.106Z,100647.44
2023-03-17T18:18:13.059Z,100643.91
2023-03-17T18:20:40.308Z,100646.88
2023-03-17T18:23:08.046Z,100657.06
2023-03-17T18:25:35.832Z,100654.09
2023-03-17T18:28:03.957Z,100657.56
2023-03-17T18:30:34.794Z,100656.72
2023-03-17T18:33:12.557Z,100649.72
2023-03-17T18:35:40.187Z,100645.13
2023-03-17T18:38:08.503Z,100659.88
2023-03-17T18:40:36.315Z,100652.34
2023-03-17T18:43:03.870Z,100651.22
2023-03-17T18:45:30.792Z,100643.16
2023-03-17T18:47:57.742Z,100641.25
2023-03-17T18:50:24.788Z,100642.84
2023-03-17T18:52:51.733Z,100636.91
2023-03-17T18:55:19.445Z,100642.81
2023-03-17T18:57:46.588Z,100636.56
2023-03-17T19:00:18.542Z,100638.75
2023-03-17T19:02:46.244Z,100638.72
2023-03-17T19:05:14.243Z,100623.91
2023-03-17T19:07:41.876Z,100628.44
2023-03-17T19:10:12.144Z,100627.38
2023-03-17T19:12:39.224Z,100625.19
2023-03-17T19:15:08.398Z,100632.69
2023-03-17T19:17:36.598Z,100621.63
2023-03-17T19:20:04.924Z,100629.97
2023-03-17T19:22:33.829Z,100619.47
2023-03-17T19:25:01.264Z,100614.84
2023-03-17T19:27:28.408Z,100605.16
2023-03-17T19:29:55.595Z,100602.72
2023-03-17T19:32:22.632Z,100597.34
2023-03-17T19:34:49.766Z,100609.44
2023-03-17T19:37:16.846Z,100602.44
2023-03-17T19:39:44.877Z,100596.47
2023-03-17T19:42:13.198Z,100603.75
2023-03-17T19:44:40.566Z,100613.69
2023-03-17T19:47:08.318Z,100605.59
2023-03-17T19:49:37.449Z,100605.59
2023-03-17T19:52:06.895Z,100613.13
2023-03-17T19:54:34.697Z,100604.78
2023-03-17T19:57:01.631Z,100612.84
2023-03-17T19:59:28.652Z,100624.94
2023-03-17T20:01:55.998Z,100633.25
2023-03-17T20:04:23.193Z,100631.13
2023-03-17T20:06:55.701Z,100626.78
2023-03-17T20:09:25.976Z,100646.69
2023-03-17T20:11:54.410Z,100637.56
2023-03-17T20:14:21.552Z,100633.25
2023-03-17T20:16:49.606Z,100633.53
2023-03-17T20:19:17.393Z,100646.94
2023-03-17T20:21:44.719Z,100648.25
2023-03-17T20:24:12.859Z,100647.75
2023-03-17T20:26:41.331Z,100652.06
2023-03-17T20:29:08.582Z,100648.56
2023-03-17T20:31:37.217Z,100640.25
2023-03-17T20:34:04.201Z,100654.75
2023-03-17T20:36:31.281Z,100650.69
2023-03-17T20:38:58.743Z,100647.75
2023-03-17T20:41:25.702Z,100647.19
2023-03-17T20:43:52.851Z,100646.38
2023-03-17T20:46:25.409Z,100625.66
2023-03-17T20:48:58.390Z,100638.84
2023-03-17T20:51:27.012Z,100628.34
2023-03-17T20:53:55.197Z,100632.09
2023-03-17T20:56:25.785Z,100636.91
2023-03-17T20:58:53.124Z,100627.41
2023-03-17T21:01:21.822Z,100635.47
2023-03-17T21:03:49.878Z,100638.41
2023-03-17T21:06:18.280Z,100626.56
2023-03-17T21:08:46.075Z,100626.25
2023-03-17T21:11:19.983Z,100625.38
2023-03-17T21:13:47.604Z,100631.81
2023-03-17T21:16:24.652Z,100633.94
2023-03-17T21:18:52.526Z,100631.22
2023-03-17T21:21:20.700Z,100639.22
2023-03-17T21:23:47.730Z,100630.28
2023-03-17T21:26:15.667Z,100627.03
2023-03-17T21:28:43.697Z,100635.53
2023-03-17T21:31:12.389Z,100636.03
2023-03-17T21:33:39.378Z,100628.41
2023-03-17T21:36:07.191Z,100634.75
2023-03-17T21:38:34.305Z,100623.16
2023-03-17T21:41:27.952Z,100632.78
2023-03-17T21:43:55.154Z,100632.91
2023-03-17T21:46:22.084Z,100633.38
2023-03-17T21:48:49.580Z,100634.38
2023-03-17T21:51:16.596Z,100636.75
2023-03-17T21:53:44.538Z,100634.50
2023-03-17T21:56:12.627Z,100638.22
2023-03-17T21:58:40.541Z,100633.03
2023-03-17T22:01:07.801Z,100629.47
2023-03-17T22:03:36.672Z,100625.66
2023-03-17T22:06:05.616Z,100628.00
2023-03-17T22:08:34.450Z,100605.75
2023-03-17T22:11:10.485Z,100618.19
2023-03-17T22:13:37.832Z,100608.41
2023-03-17T22:16:05.298Z,100620.19
2023-03-17T22:18:32.517Z,100606.47
2023-03-17T22:21:00.285Z,100609.66
2023-03-17T22:23:28.879Z,100609.91
2023-03-17T22:25:57.225Z,100605.75
2023-03-17T22:28:25.006Z,100607.53
2023-03-17T22:30:52.118Z,100622.88
2023-03-17T22:33:19.239Z,100619.88
2023-03-17T22:35:46.866Z,100608.84
2023-03-17T22:38:13.957Z,100612.81
2023-03-17T22:40:40.919Z,100616.81
2023-03-17T22:43:08.118Z,100609.41
2023-03-17T22:45:35.319Z,100607.56
2023-03-17T22:48:02.387Z,100604.53
2023-03-17T22:50:29.410Z,100612.81
2023-03-17T22:52:56.450Z,100610.38
2023-03-17T22:55:23.451Z,100608.19
2023-03-17T22:57:50.364Z,100605.75
2023-03-17T23:00:17.927Z,100606.81
2023-03-17T23:02:46.345Z,100611.59
2023-03-17T23:05:14.432Z,100600.31
2023-03-17T23:07:50.268Z,100609.41
2023-03-17T23:10:24.667Z,100615.00
2023-03-17T23:12:52.354Z,100612.56
2023-03-17T23:15:21.276Z,100608.28
2023-03-17T23:17:48.782Z,100604.22
2023-03-17T23:20:16.645Z,100605.75
2023-03-17T23:22:43.902Z,100597.22
2023-03-17T23:25:13.576Z,100599.91
2023-03-17T23:27:41.261Z,100595.59
2023-03-17T23:30:11.770Z,100591.88
2023-03-17T23:32:40.685Z,100596.19
2023-03-17T23:35:09.317Z,100594.06
2023-03-17T23:37:37.286Z,100588.16
2023-03-17T23:40:06.471Z,100580.69
2023-03-17T23:42:35.619Z,100584.91
2023-03-17T23:45:04.621Z,100578.81
2023-03-17T23:47:31.854Z,100576.97
2023-03-17T23:49:59.027Z,100587.41
2023-03-17T23:52:26.225Z,100585.56
2023-03-17T23:54:54.476Z,100582.63
2023-03-17T23:57:21.694Z,100589.38
2023-03-17T23:59:48.729Z,100589.38
